• Join FlightAware (Why Join?)
  • Login
  • US Flag 
12:19AM EST


 

Airport Tracker/Info


-or-


 

Live Flight TrackerFlight Track Log ✈ SKW6345 ✈ 04-Jun-2014 ✈ KPHX - KDEN

Flight Track Log - Related Links

Times and Time Zones

All times are in EDT time to prevent confusion due to time zone crossing. See the SKW6345 flight status page for this flight to view local times or setup timezone preferences in your user account.

Time Position Orientation Groundspeed Altitude Reporting Facility
EDT Latitude Longitude Course Direction KTS MPH feet Rate Location/Type
10:45AM 33.4333 -111.9833 20° North 167 192 2,000  Level Phoenix TRACON
10:45AM 33.4333 -111.9667 90° East 172 198 2,600 1,620 Climbing Phoenix TRACON
10:47AM 33.4558 -111.8458 77° East 263 303 5,300 1,920 Climbing Albuquerque Center
10:48AM 33.5061 -111.7547 56° Northeast 278 320 7,800 2,220 Climbing Albuquerque Center
10:49AM 34.0498 -111.7334 20° North  Level FlightAware Approximate
10:49AM 33.5667 -111.6889 42° Northeast 296 341 9,900  Level Albuquerque Center
10:50AM 34.1740 -111.6820 20° North  Level FlightAware Approximate
10:50AM 33.6506 -111.6892 360° North 305 351 11,700  Level Albuquerque Center
10:51AM 33.7389 -111.6972 356° North 317 365 13,500 1,500 Climbing Albuquerque Center
10:52AM 33.8364 -111.7069 355° North 348 400 14,800 1,620 Climbing Albuquerque Center
10:53AM 33.9575 -111.7186 355° North 368 423 16,900 1,800 Climbing Albuquerque Center
10:54AM 34.0581 -111.7236 358° North 376 433 18,600 1,680 Climbing Albuquerque Center
10:55AM 34.1758 -111.6794 17° North 388 447 20,400 1,500 Climbing Albuquerque Center
10:56AM 34.2681 -111.6436 18° North 402 463 21,800 1,500 Climbing Albuquerque Center
10:57AM 34.3997 -111.5925 18° North 411 473 23,500 1,500 Climbing Albuquerque Center
10:58AM 34.5122 -111.5481 18° North 419 482 24,900 1,260 Climbing Albuquerque Center
10:59AM 34.6033 -111.4489 42° Northeast 443 510 26,200 1,080 Climbing Albuquerque Center
11:00AM 34.6861 -111.3317 49° Northeast 449 517 27,200 960 Climbing Albuquerque Center
11:01AM 34.7708 -111.2106 50° Northeast 462 532 28,200 960 Climbing Albuquerque Center
11:02AM 34.8586 -111.0878 49° Northeast 473 544 29,300 1,080 Climbing Albuquerque Center
11:03AM 34.9633 -110.9364 50° Northeast 483 556 30,500 1,020 Climbing Albuquerque Center
11:04AM 35.0511 -110.8092 50° Northeast 489 563 31,500 900 Climbing Albuquerque Center
11:05AM 35.1378 -110.6767 51° Northeast 493 567 32,400 720 Climbing Albuquerque Center
11:06AM 35.2247 -110.5422 52° Northeast 500 575 33,100 780 Climbing Albuquerque Center
11:07AM 35.3117 -110.4067 52° Northeast 503 579 34,100 960 Climbing Albuquerque Center
11:08AM 35.3989 -110.2717 52° Northeast 504 580 35,200 1,200 Climbing Albuquerque Center
11:09AM 35.4994 -110.1136 52° Northeast 496 571 36,600 1,080 Climbing Albuquerque Center
11:10AM 35.5825 -109.9847 52° Northeast 487 560 37,500 660 Climbing Albuquerque Center
11:12AM 35.6656 -109.8569 51° Northeast 484 557 38,000 420 Climbing Albuquerque Center
11:13AM 35.7469 -109.7272 52° Northeast 481 554 38,400 300 Climbing Albuquerque Center
11:14AM 35.8294 -109.5969 52° Northeast 481 554 38,700 240 Climbing Albuquerque Center
11:14AM 35.8756 -109.5178 54° Northeast 481 554 38,800 180 Climbing Denver Center
11:15AM 35.9611 -109.3844 52° Northeast 486 559 39,000 120 Climbing Denver Center
11:16AM 36.0164 -109.2994 51° Northeast 494 568 39,000  Level Albuquerque Center
11:17AM 36.1158 -109.1819 44° Northeast 497 572 39,000  Level Albuquerque Center
11:17AM 36.1575 -109.1322 44° Northeast 504 580 39,000  Level Denver Center
11:18AM 36.2817 -108.9903 43° Northeast 504 580 39,000 -300 Level Denver Center
11:19AM 36.3797 -108.8731 44° Northeast 501 577 38,500 -540 Descending Denver Center
11:20AM 36.4828 -108.7533 43° Northeast 502 578 38,000 -540 Descending Denver Center
11:21AM 36.5850 -108.6331 43° Northeast 502 578 37,500 -480 Descending Denver Center
11:22AM 36.6872 -108.5128 43° Northeast 504 580 37,100 -300 Descending Denver Center
11:23AM 36.7992 -108.3797 44° Northeast 504 580 37,000 -60 Descending Denver Center
11:24AM 36.9114 -108.2439 44° Northeast 504 580 37,000  Level Denver Center
11:26AM 37.0050 -108.1311 44° Northeast 499 574 37,000  Level Denver Center
11:27AM 37.1139 -108.0033 43° Northeast 491 565 37,000  Level Denver Center
11:28AM 37.2089 -107.8861 44° Northeast 491 565 37,000  Level Denver Center
11:29AM 37.3011 -107.7725 44° Northeast 490 564 37,000  Level Denver Center
11:30AM 37.4106 -107.6411 44° Northeast 489 563 37,000  Level Denver Center
11:31AM 37.5067 -107.5217 45° Northeast 501 577 37,000  Level Denver Center
11:32AM 37.6197 -107.3825 44° Northeast 505 581 37,000  Level Denver Center
11:33AM 37.7181 -107.2617 44° Northeast 510 587 37,000  Level Denver Center
11:34AM 37.8311 -107.1242 44° Northeast 511 588 37,000  Level Denver Center
11:35AM 37.9283 -107.0036 44° Northeast 511 588 37,000  Level Denver Center
11:36AM 38.0428 -106.8603 45° Northeast 514 592 37,000 -240 Level Denver Center
11:37AM 38.1392 -106.7381 45° Northeast 511 588 36,600 -480 Descending Denver Center
11:38AM 38.2556 -106.5922 45° Northeast 523 602 36,100 -540 Descending Denver Center
11:39AM 38.3639 -106.4556 45° Northeast 532 612 35,500 -900 Descending Denver Center
11:40AM 38.4689 -106.3222 45° Northeast 534 615 34,300 -1,320 Descending Denver Center
11:41AM 38.5733 -106.1881 45° Northeast 534 615 32,800 -1,500 Descending Denver Center
11:42AM 38.6822 -106.0506 45° Northeast 533 613 31,300 -1,680 Descending Denver Center
11:43AM 38.7847 -105.9181 45° Northeast 528 608 29,400 -2,160 Descending Denver Center
11:44AM 38.9056 -105.7628 45° Northeast 519 597 26,900 -2,100 Descending Denver Center
11:45AM 38.9950 -105.6453 46° Northeast 499 574 25,100 -1,800 Descending Denver Center
11:46AM 39.0886 -105.5233 45° Northeast 485 558 23,300 -1,620 Descending Denver Center
11:47AM 39.1811 -105.4044 45° Northeast 448 516 21,800 -1,320 Descending Denver Center
11:48AM 39.2658 -105.2983 44° Northeast 411 473 20,600 -1,440 Descending Denver Center
11:49AM 39.3556 -105.2106 37° Northeast 375 432 18,900 -1,500 Descending Denver Center
11:50AM 39.4353 -105.1331 37° Northeast 358 412 17,500 -1,500 Descending Denver Center
11:51AM 39.5161 -105.0533 37° Northeast 342 394 15,900 -1,440 Descending Denver Center
11:52AM 39.5886 -104.9811 38° Northeast 333 383 14,600 -1,020 Descending Denver Center
11:53AM 39.6656 -104.9058 37° Northeast 326 375 13,800 -840 Descending Denver Center
11:54AM 39.7425 -104.8453 31° Northeast 321 369 12,900 -1,140 Descending Denver Center
11:56AM 39.8375 -104.8419 North 313 360 11,500 -960 Descending Denver Center
11:57AM 39.9156 -104.8400 North 274 315 11,000 -780 Descending Denver Center
11:58AM 39.9875 -104.8406 360° North 260 299 10,000 -1,140 Descending Denver Center
11:59AM 40.0636 -104.8414 360° North 256 295 8,700 -1,020 Descending Denver Center
12:00PM 40.0836 -104.7758 68° East 220 253 7,900 -540 Descending Denver Center
12:01PM 40.0300 -104.7369 151° Southeast 205 236 7,600 -540 Descending Denver Center
12:02PM 39.9856 -104.7094 155° Southeast 180 207 6,900 -720 Descending Denver Center
12:03PM 39.9431 -104.6947 165° South 150 173 6,200 -720 Descending Denver Center
12:04PM 39.9025 -104.6958 181° South 146 168 5,500 -720 Descending Denver Center